Time;durP1;ratioP1;P1;durP2;ratioP2;P2;SDS_P1;SDS_P2;PMS_P1;PMS_P2;Temp;Humidity;BMP_temperature;BMP_pressure;BME280_temperature;BME280_humidity;BME280_pressure;Samples;Min_cycle;Max_cycle;Signal;HPM_P1;HPM_P2
2022/04/19 00:02:45;;;;;;;31.08;25.02;;;;;;;12.56;47.20;101609.94;5131731;28;20771;-49
2022/04/19 00:05:17;;;;;;;31.92;25.38;;;;;;;12.52;47.25;101613.84;5141050;28;20467;-57
2022/04/19 00:07:51;;;;;;;34.63;27.35;;;;;;;12.50;47.50;101597.25;5135168;28;20853;-48
2022/04/19 00:10:28;;;;;;;31.27;27.33;;;;;;;12.46;47.63;101608.13;5133700;28;20438;-51
2022/04/19 00:13:02;;;;;;;32.95;26.30;;;;;;;11.78;47.62;101501.50;5137612;28;20453;-47
2022/04/19 00:15:38;;;;;;;30.48;26.88;;;;;;;12.41;47.60;101594.47;5133860;28;20438;-48
2022/04/19 00:18:12;;;;;;;33.30;27.20;;;;;;;12.03;48.03;101531.00;5136464;28;20898;-56
2022/04/19 00:20:45;;;;;;;32.03;26.70;;;;;;;12.32;48.16;101597.97;5139055;28;20426;-46
2022/04/19 00:23:18;;;;;;;31.35;27.02;;;;;;;12.35;48.19;101588.91;5132881;28;20817;-49
2022/04/19 00:25:52;;;;;;;34.13;27.70;;;;;;;12.30;48.08;101581.41;5132916;28;20480;-48
2022/04/19 00:28:26;;;;;;;33.83;27.25;;;;;;;12.34;48.15;101596.03;5134824;28;20988;-58
2022/04/19 00:30:59;;;;;;;33.58;28.65;;;;;;;12.26;48.35;101593.25;5134845;28;21678;-48
2022/04/19 00:33:32;;;;;;;36.50;28.70;;;;;;;12.05;48.43;101556.38;5136723;28;20531;-48
2022/04/19 00:36:05;;;;;;;33.22;28.00;;;;;;;12.26;48.39;101590.59;5140489;28;21223;-47
2022/04/19 00:38:39;;;;;;;37.83;28.77;;;;;;;12.23;48.60;101590.88;5140470;28;20427;-48
2022/04/19 00:41:12;;;;;;;37.90;30.15;;;;;;;12.13;48.62;101579.47;5134314;27;20432;-51
2022/04/19 00:43:45;;;;;;;39.05;30.15;;;;;;;12.11;48.88;101581.44;5189904;28;20406;-53
2022/04/19 00:46:17;;;;;;;36.53;28.88;;;;;;;12.14;48.82;101586.44;5142494;28;20517;-49
2022/04/19 00:48:49;;;;;;;35.40;28.92;;;;;;;12.11;49.03;101584.94;5131653;28;20443;-49
2022/04/19 00:51:22;;;;;;;35.67;28.95;;;;;;;11.95;49.10;101566.13;5133097;28;20424;-45
2022/04/19 00:53:57;;;;;;;39.97;32.40;;;;;;;11.98;49.38;101571.13;5130974;27;20425;-50
2022/04/19 00:56:30;;;;;;;41.97;32.28;;;;;;;11.93;49.26;101568.94;5196855;27;20420;-58
2022/04/19 00:59:03;;;;;;;38.95;32.25;;;;;;;11.93;49.56;101587.47;5224273;28;20469;-47
2022/04/19 01:01:37;;;;;;;37.50;30.95;;;;;;;11.94;49.87;101578.53;5216222;28;20439;-48
2022/04/19 01:04:10;;;;;;;41.25;32.72;;;;;;;11.92;49.76;101583.16;5213135;28;20923;-45
2022/04/19 01:06:43;;;;;;;41.75;34.42;;;;;;;11.83;50.00;101573.38;5219175;28;20405;-45
2022/04/19 01:09:17;;;;;;;39.70;33.78;;;;;;;11.85;49.98;101579.38;5218993;28;20396;-46
2022/04/19 01:14:42;;;;;;;43.20;34.47;;;;;;;11.72;50.49;101576.97;5201418;28;20430;-45
2022/04/19 01:17:15;;;;;;;44.13;36.35;;;;;;;11.65;50.68;101570.56;5232507;28;20785;-49
2022/04/19 01:19:48;;;;;;;42.25;35.88;;;;;;;11.71;50.58;101585.06;5211112;28;20924;-48
2022/04/19 01:22:24;;;;;;;46.60;36.53;;;;;;;11.60;50.82;101572.78;5216491;28;20436;-48
2022/04/19 01:24:57;;;;;;;41.40;35.17;;;;;;;11.62;51.07;101585.91;5217395;28;20816;-49
2022/04/19 01:27:29;;;;;;;47.95;36.47;;;;;;;11.58;51.20;101579.19;5216237;28;20415;-46
2022/04/19 01:30:06;;;;;;;45.85;36.20;;;;;;;11.37;51.33;101553.72;5216532;28;20818;-46
2022/04/19 01:32:39;;;;;;;45.30;35.65;;;;;;;11.49;51.39;101576.41;5207860;28;20515;-50
2022/04/19 01:35:14;;;;;;;46.67;35.63;;;;;;;11.43;51.49;101571.69;5224309;28;20763;-46
2022/04/19 01:37:50;;;;;;;42.88;35.47;;;;;;;11.50;51.67;101578.06;5220529;28;20505;-48
2022/04/19 01:40:22;;;;;;;42.90;34.58;;;;;;;11.47;51.52;101567.78;5223021;28;20416;-45
2022/04/19 01:42:58;;;;;;;43.90;36.38;;;;;;;11.52;51.74;101573.50;5214826;28;20403;-54
2022/04/19 01:45:33;;;;;;;43.33;35.60;;;;;;;11.51;51.72;101573.63;5218505;28;20439;-46
2022/04/19 01:48:06;;;;;;;45.47;35.03;;;;;;;11.44;51.76;101562.75;5222566;28;20760;-49
2022/04/19 01:50:39;;;;;;;48.03;37.15;;;;;;;11.47;51.73;101567.78;5217736;28;20421;-44
2022/04/19 01:53:14;;;;;;;42.47;35.72;;;;;;;11.50;51.80;101566.66;5211383;28;20780;-45
2022/04/19 01:55:47;;;;;;;43.33;36.38;;;;;;;11.51;52.06;101566.50;5215818;28;20486;-43
2022/04/19 01:58:20;;;;;;;43.78;38.17;;;;;;;11.50;51.93;101564.03;5218926;28;20409;-46
2022/04/19 02:00:54;;;;;;;46.85;36.22;;;;;;;11.48;51.98;101569.44;5221173;28;20973;-48
2022/04/19 02:03:26;;;;;;;47.45;37.47;;;;;;;11.37;51.86;101544.94;5212854;28;20405;-52
2022/04/19 02:05:59;;;;;;;47.60;37.63;;;;;;;11.40;52.18;101549.97;5216067;28;20849;-49
2022/04/19 02:08:32;;;;;;;45.83;37.83;;;;;;;11.45;52.25;101559.13;5224550;28;20409;-51
2022/04/19 02:11:05;;;;;;;41.83;35.30;;;;;;;11.43;52.26;101555.81;5215472;28;20932;-49
2022/04/19 02:13:38;;;;;;;44.83;35.97;;;;;;;11.38;52.34;101552.72;5225201;28;20592;-48
2022/04/19 02:16:11;;;;;;;50.67;39.88;;;;;;;11.32;52.68;101553.28;5214464;28;20428;-46
2022/04/19 02:18:44;;;;;;;48.90;39.05;;;;;;;11.31;52.76;101556.91;5218935;28;20402;-48
2022/04/19 02:21:16;;;;;;;44.28;37.15;;;;;;;11.17;52.45;101538.78;5218647;28;20978;-51
2022/04/19 02:23:50;;;;;;;46.72;38.92;;;;;;;11.27;52.89;101560.78;5219624;28;20448;-48
2022/04/19 02:26:24;;;;;;;52.92;39.58;;;;;;;11.21;52.83;101556.03;5220727;28;20430;-45
2022/04/19 02:28:58;;;;;;;51.38;40.63;;;;;;;11.20;53.07;101560.47;5199780;28;20404;-53
2022/04/19 02:31:30;;;;;;;47.93;39.77;;;;;;;11.18;53.18;101556.28;5220093;28;20437;-48
2022/04/19 02:34:03;;;;;;;48.47;41.38;;;;;;;11.17;53.27;101563.41;5218380;28;20765;-49
2022/04/19 02:36:36;;;;;;;52.67;42.67;;;;;;;11.10;53.14;101559.63;5224007;28;20961;-50
2022/04/19 02:39:09;;;;;;;54.85;42.42;;;;;;;11.04;53.34;101563.66;5221334;28;20407;-46
2022/04/19 02:41:42;;;;;;;50.80;40.25;;;;;;;11.02;53.39;101557.66;5220009;28;20443;-45
2022/04/19 02:44:14;;;;;;;51.40;42.17;;;;;;;10.90;53.56;101545.53;5218287;28;20421;-48
2022/04/19 02:46:47;;;;;;;51.15;43.00;;;;;;;10.94;53.58;101554.88;5214793;28;20490;-51
2022/04/19 02:49:20;;;;;;;53.17;43.92;;;;;;;10.90;53.81;101561.41;5213980;28;20424;-45
2022/04/19 02:51:52;;;;;;;57.13;43.97;;;;;;;10.82;54.04;101561.22;5214789;28;20535;-50
2022/04/19 02:54:26;;;;;;;53.90;44.58;;;;;;;10.82;53.97;101550.66;5217958;28;20403;-47
2022/04/19 02:56:59;;;;;;;54.72;43.83;;;;;;;10.84;54.14;101564.56;5141228;28;20438;-46
2022/04/19 02:59:31;;;;;;;54.40;43.95;;;;;;;10.78;54.04;101544.81;5135484;28;20430;-46
2022/04/19 03:02:05;;;;;;;55.58;45.15;;;;;;;10.81;54.21;101559.56;5131914;28;20796;-46
2022/04/19 03:04:38;;;;;;;49.00;41.10;;;;;;;10.78;54.13;101550.09;5130221;27;20424;-50
2022/04/19 03:07:11;;;;;;;50.35;41.80;;;;;;;10.84;54.39;101559.28;5132471;28;20451;-44
2022/04/19 03:09:48;;;;;;;55.67;45.35;;;;;;;10.84;54.29;101556.66;5137775;28;20477;-44
2022/04/19 03:12:20;;;;;;;54.08;44.22;;;;;;;10.81;54.58;101559.56;5129680;28;21384;-45
2022/04/19 03:14:52;;;;;;;51.55;42.35;;;;;;;10.71;54.54;101532.25;5136762;28;20502;-48
2022/04/19 03:17:25;;;;;;;52.47;42.60;;;;;;;10.78;54.39;101555.38;5130117;28;20857;-49
2022/04/19 03:19:57;;;;;;;54.08;44.08;;;;;;;10.72;54.84;101542.69;5135917;28;20484;-47
2022/04/19 03:27:41;;;;;;;49.58;41.03;;;;;;;10.12;54.91;101451.91;5135480;28;20415;-56
2022/04/19 03:28:14;;;;;;;55.78;41.55;;;;;;;10.69;55.10;101544.78;5133784;27;20421;-46
2022/04/19 03:30:46;;;;;;;51.97;42.38;;;;;;;10.70;55.17;101549.06;5128934;28;20416;-45
2022/04/19 03:33:19;;;;;;;55.20;44.20;;;;;;;10.72;55.24;101555.06;5127337;28;20422;-44
2022/04/19 03:35:51;;;;;;;44.00;36.90;;;;;;;10.73;55.50;101554.94;5132157;28;20499;-46
2022/04/19 03:38:24;;;;;;;49.92;41.20;;;;;;;10.68;55.27;101548.38;5133845;27;20411;-48
2022/04/19 03:40:58;;;;;;;51.47;42.30;;;;;;;10.62;55.53;101533.88;5136192;28;20413;-45
2022/04/19 03:43:32;;;;;;;54.53;44.15;;;;;;;10.64;55.45;101536.41;5131361;27;20422;-48
2022/04/19 03:46:04;;;;;;;53.87;43.47;;;;;;;10.70;55.62;101551.72;5136151;28;20452;-49
2022/04/19 03:48:37;;;;;;;51.05;42.95;;;;;;;10.66;55.68;101540.59;5134117;28;20423;-48
2022/04/19 03:51:10;;;;;;;56.72;42.60;;;;;;;10.67;55.70;101546.69;5136009;27;20438;-45
2022/04/19 03:53:42;;;;;;;47.30;40.10;;;;;;;10.66;55.85;101545.88;5140283;28;20465;-48
2022/04/19 03:56:16;;;;;;;47.58;36.90;;;;;;;10.60;55.84;101541.94;5167427;28;20490;-46
2022/04/19 03:58:48;;;;;;;49.03;41.17;;;;;;;10.62;56.12;101552.38;5135831;27;20446;-46
2022/04/19 04:01:21;;;;;;;48.53;39.60;;;;;;;10.60;56.07;101544.59;5133253;28;20447;-48
2022/04/19 04:03:53;;;;;;;52.00;42.53;;;;;;;10.40;55.87;101529.63;5204208;28;20405;-43
2022/04/19 04:06:27;;;;;;;51.03;40.67;;;;;;;10.52;56.20;101538.28;5134988;28;20420;-48
2022/04/19 04:08:59;;;;;;;51.70;40.47;;;;;;;10.56;56.18;101544.97;5136950;28;20422;-48
2022/04/19 04:11:33;;;;;;;50.80;38.70;;;;;;;10.54;56.18;101539.84;5133294;28;20435;-53
2022/04/19 04:14:06;;;;;;;45.15;36.83;;;;;;;10.53;56.41;101534.66;5142825;27;20412;-46
2022/04/19 04:16:38;;;;;;;52.00;40.08;;;;;;;10.52;56.44;101533.00;5200963;28;20674;-50
2022/04/19 04:19:10;;;;;;;51.13;41.05;;;;;;;10.50;56.31;101530.50;5134760;28;20424;-45
2022/04/19 04:21:43;;;;;;;47.08;36.58;;;;;;;10.49;56.46;101536.75;5132291;28;20824;-44
2022/04/19 04:24:15;;;;;;;42.33;36.03;;;;;;;10.41;56.36;101526.03;5133705;28;20421;-50
2022/04/19 04:26:49;;;;;;;43.30;35.58;;;;;;;10.39;56.64;101533.22;5130249;28;20780;-45
2022/04/19 04:29:21;;;;;;;43.72;35.58;;;;;;;10.23;56.65;101506.44;5134899;28;20742;-47
2022/04/19 04:31:54;;;;;;;49.28;33.58;;;;;;;10.44;56.65;101554.81;5151584;28;20409;-46
2022/04/19 04:34:26;;;;;;;40.42;32.58;;;;;;;10.27;56.72;101529.00;5128818;28;20484;-47
2022/04/19 04:36:59;;;;;;;39.17;33.00;;;;;;;10.38;56.75;101542.97;5127867;28;20425;-49
2022/04/19 04:39:31;;;;;;;38.95;31.30;;;;;;;10.45;56.93;101553.00;5128239;28;20511;-49
2022/04/19 04:42:06;;;;;;;40.88;33.03;;;;;;;10.46;56.76;101555.50;5138540;28;20747;-49
2022/04/19 04:44:38;;;;;;;38.00;29.38;;;;;;;10.47;56.76;101557.19;5128259;28;20474;-46
2022/04/19 04:50:08;;;;;;;34.95;27.90;;;;;;;10.49;56.94;101549.94;5127581;28;20491;-45
2022/04/19 04:52:41;;;;;;;33.92;27.42;;;;;;;10.52;57.12;101565.53;5144377;28;20458;-45
2022/04/19 04:55:13;;;;;;;33.58;26.23;;;;;;;10.47;57.00;101545.78;5147774;28;22042;-44
2022/04/19 04:57:47;;;;;;;35.03;27.23;;;;;;;10.54;57.20;101555.69;5147806;28;20453;-44
2022/04/19 05:00:19;;;;;;;31.77;24.80;;;;;;;10.55;57.15;101560.00;5159393;28;20405;-44
2022/04/19 05:02:52;;;;;;;31.05;24.65;;;;;;;10.55;57.04;101553.88;5158075;28;20707;-44
2022/04/19 05:05:24;;;;;;;28.95;24.02;;;;;;;10.65;57.24;101564.47;5137025;28;20876;-46
2022/04/19 05:07:57;;;;;;;42.10;25.45;;;;;;;10.69;57.06;101565.91;5144887;27;20421;-45
2022/04/19 05:10:30;;;;;;;31.90;23.38;;;;;;;10.73;56.95;101577.88;5148707;28;20430;-48
2022/04/19 05:13:04;;;;;;;31.35;24.33;;;;;;;10.75;56.91;101570.66;5128606;28;20409;-45
2022/04/19 05:15:39;;;;;;;29.88;22.30;;;;;;;10.76;57.10;101569.69;5127331;28;20520;-45
2022/04/19 05:18:11;;;;;;;24.90;21.02;;;;;;;10.81;56.90;101568.31;5141231;28;20512;-46
2022/04/19 05:20:44;;;;;;;24.50;19.65;;;;;;;10.85;56.90;101571.53;5136995;28;20407;-46
2022/04/19 05:23:16;;;;;;;23.48;19.45;;;;;;;10.93;56.83;101582.28;5143115;28;20490;-47
2022/04/19 05:25:49;;;;;;;24.53;18.67;;;;;;;11.00;56.96;101578.13;5133948;28;20569;-45
2022/04/19 05:28:23;;;;;;;24.20;18.50;;;;;;;11.06;56.70;101580.22;5130200;28;20470;-49
2022/04/19 05:30:55;;;;;;;25.88;18.80;;;;;;;11.14;56.75;101590.09;5157592;28;20496;-51
2022/04/19 05:33:28;;;;;;;23.58;17.58;;;;;;;11.20;56.74;101586.94;5140635;28;20498;-45
2022/04/19 05:36:01;;;;;;;21.02;16.70;;;;;;;11.19;56.65;101573.84;5148052;28;20418;-47
2022/04/19 05:38:33;;;;;;;23.38;17.83;;;;;;;11.34;56.55;101596.31;5139576;28;20451;-47
2022/04/19 05:41:06;;;;;;;21.40;15.32;;;;;;;11.28;56.37;101563.28;5149914;28;20421;-45
2022/04/19 05:43:39;;;;;;;19.63;14.68;;;;;;;11.51;56.44;101585.03;5160113;28;20899;-48
2022/04/19 05:46:12;;;;;;;16.50;14.23;;;;;;;11.58;56.24;101584.47;5132885;28;20489;-46
2022/04/19 05:48:45;;;;;;;18.92;14.20;;;;;;;11.60;56.19;101579.91;5145761;28;20913;-45
2022/04/19 05:51:17;;;;;;;15.60;13.40;;;;;;;11.76;56.01;101581.00;5146351;28;20415;-47
2022/04/19 05:53:50;;;;;;;16.60;13.57;;;;;;;11.80;55.85;101584.22;5135092;28;20516;-47
2022/04/19 05:56:22;;;;;;;17.05;13.27;;;;;;;11.95;55.90;101593.47;5141731;28;20422;-47
2022/04/19 05:58:56;;;;;;;17.70;12.82;;;;;;;12.08;55.59;101589.66;5131771;28;20424;-44
2022/04/19 06:04:51;;;;;;;18.70;13.25;;;;;;;12.26;55.21;101590.59;5133715;28;20437;-49
2022/04/19 06:07:12;;;;;;;14.93;11.23;;;;;;;14.33;53.25;101582.94;5133454;28;20511;-48
2022/04/19 06:09:47;;;;;;;16.42;11.25;;;;;;;15.59;51.67;101584.81;5143602;28;20434;-50
2022/04/19 06:12:20;;;;;;;18.35;10.70;;;;;;;16.64;50.55;101590.25;5142148;28;20422;-50
2022/04/19 06:14:53;;;;;;;13.32;10.30;;;;;;;17.40;49.42;101562.06;5149310;28;20502;-51
2022/04/19 06:17:29;;;;;;;14.63;10.23;;;;;;;18.44;48.19;101599.81;5197859;28;20471;-51
2022/04/19 06:20:03;;;;;;;12.43;9.13;;;;;;;18.95;47.51;101591.06;5139994;28;20458;-50
2022/04/19 06:22:37;;;;;;;16.13;9.85;;;;;;;19.41;46.74;101606.88;5131572;28;20428;-52
2022/04/19 06:25:11;;;;;;;15.05;9.43;;;;;;;19.72;46.07;101607.41;5128513;28;20416;-49
2022/04/19 06:27:44;;;;;;;13.35;9.00;;;;;;;19.76;45.54;101605.22;5122487;28;20600;-53
2022/04/19 06:30:18;;;;;;;20.33;9.43;;;;;;;19.76;45.32;101614.09;5127426;28;20511;-53
2022/04/19 06:32:51;;;;;;;21.98;8.88;;;;;;;19.66;44.99;101613.53;5129890;28;20423;-54
2022/04/19 06:35:24;;;;;;;13.75;9.43;;;;;;;19.70;44.68;101612.16;5121375;28;20919;-51
2022/04/19 06:37:56;;;;;;;16.90;9.38;;;;;;;19.90;44.11;101603.47;5120788;28;20473;-53
2022/04/19 06:40:30;;;;;;;12.02;9.10;;;;;;;20.12;43.66;101633.78;5124069;28;20420;-53
2022/04/19 06:43:03;;;;;;;11.57;8.63;;;;;;;20.29;43.06;101607.50;5123469;28;20529;-54
2022/04/19 06:45:37;;;;;;;15.38;9.38;;;;;;;20.55;42.51;101605.03;5127235;28;20441;-53
2022/04/19 06:48:09;;;;;;;13.07;8.95;;;;;;;20.86;42.04;101609.13;5124455;28;20436;-56
2022/04/19 06:50:42;;;;;;;18.17;9.50;;;;;;;21.13;41.69;101600.16;5122789;28;20742;-55
2022/04/19 06:53:15;;;;;;;12.15;8.75;;;;;;;21.46;41.03;101604.81;5127114;28;20439;-51
2022/04/19 06:55:47;;;;;;;11.40;8.57;;;;;;;21.84;40.59;101617.72;5125827;28;20428;-53
2022/04/19 06:58:20;;;;;;;11.70;8.50;;;;;;;22.17;39.75;101611.53;5127084;28;20437;-52
2022/04/19 07:00:54;;;;;;;11.77;9.07;;;;;;;22.32;39.33;101604.06;5132417;28;20505;-52
2022/04/19 07:03:26;;;;;;;12.88;8.32;;;;;;;22.53;38.94;101621.84;5124412;28;20545;-53
2022/04/19 07:05:59;;;;;;;11.80;9.05;;;;;;;22.68;38.78;101616.25;5172722;28;20435;-54
2022/04/19 07:08:32;;;;;;;12.30;8.70;;;;;;;23.05;38.26;101612.00;5144217;28;20476;-59
2022/04/19 07:11:05;;;;;;;12.23;7.75;;;;;;;23.25;37.84;101614.59;5129159;28;20432;-53
2022/04/19 07:13:37;;;;;;;11.95;8.05;;;;;;;23.31;37.37;101619.13;5125774;28;20791;-54
2022/04/19 07:16:11;;;;;;;11.82;8.60;;;;;;;23.38;37.24;101619.94;5128505;27;20834;-52
2022/04/19 07:18:44;;;;;;;11.88;8.52;;;;;;;23.31;37.08;101616.44;5166269;28;20417;-53
2022/04/19 07:26:59;;;;;;;12.00;8.27;;;;;;;23.05;36.63;101616.56;5136089;27;20432;-54
2022/04/19 07:29:31;;;;;;;15.65;8.60;;;;;;;23.37;36.29;101620.97;5140827;28;20423;-53
2022/04/19 07:32:06;;;;;;;13.43;8.63;;;;;;;23.91;35.77;101625.00;5137336;28;20501;-54
2022/04/19 07:34:39;;;;;;;15.50;8.73;;;;;;;24.28;35.19;101617.03;5133791;28;20513;-49
2022/04/19 07:37:11;;;;;;;16.42;8.95;;;;;;;24.39;35.04;101621.66;5201415;28;20490;-50
2022/04/19 07:39:44;;;;;;;13.75;8.68;;;;;;;24.16;34.85;101616.91;5134737;28;22108;-54
2022/04/19 07:42:16;;;;;;;11.77;8.68;;;;;;;24.00;34.70;101616.63;5135442;28;20411;-54
2022/04/19 07:44:49;;;;;;;15.25;8.90;;;;;;;24.00;34.70;101627.41;5128309;28;20429;-53
2022/04/19 07:47:23;;;;;;;13.85;8.32;;;;;;;24.13;34.43;101624.63;5128365;28;20473;-56
2022/04/19 07:49:58;;;;;;;14.53;8.60;;;;;;;23.91;34.20;101584.53;5127946;28;20503;-55
2022/04/19 07:52:30;;;;;;;11.20;8.18;;;;;;;24.31;34.03;101623.81;5125949;28;21896;-53
2022/04/19 07:55:03;;;;;;;18.70;8.20;;;;;;;24.39;33.89;101627.06;5139362;28;20425;-53
2022/04/19 07:57:35;;;;;;;12.48;7.85;;;;;;;24.36;33.68;101632.91;5138591;28;20786;-54
2022/04/19 08:00:10;;;;;;;11.48;8.13;;;;;;;24.35;33.73;101631.28;5143454;28;20494;-53
2022/04/19 08:02:44;;;;;;;13.75;8.88;;;;;;;24.68;33.31;101630.13;5126154;28;20525;-51
2022/04/19 08:05:17;;;;;;;14.50;8.30;;;;;;;24.89;33.02;101636.97;5125133;28;20518;-56
2022/04/19 08:07:49;;;;;;;13.70;7.67;;;;;;;24.83;33.03;101629.75;5127238;28;20498;-52
2022/04/19 08:10:22;;;;;;;14.32;8.00;;;;;;;24.69;33.13;101626.41;5128240;28;20419;-53
2022/04/19 08:12:55;;;;;;;13.38;7.43;;;;;;;24.34;32.97;101583.75;5124689;28;20436;-57
2022/04/19 08:15:27;;;;;;;14.67;7.93;;;;;;;24.58;33.00;101630.66;5132345;28;20502;-53
2022/04/19 08:18:01;;;;;;;15.15;7.85;;;;;;;24.82;32.71;101631.66;5124853;28;20515;-53
2022/04/19 08:20:34;;;;;;;10.67;7.87;;;;;;;24.71;32.86;101640.47;5122922;28;20424;-52
2022/04/19 08:23:07;;;;;;;11.50;7.80;;;;;;;24.61;32.86;101637.47;5125551;28;20432;-54
2022/04/19 08:25:43;;;;;;;11.75;7.53;;;;;;;24.60;32.96;101639.38;5123780;28;20793;-55
2022/04/19 08:28:15;;;;;;;14.25;8.30;;;;;;;24.28;33.18;101627.81;5131148;28;20437;-51
2022/04/19 08:30:47;;;;;;;13.60;7.43;;;;;;;24.24;33.16;101640.09;5121780;28;20441;-49
2022/04/19 08:33:21;;;;;;;10.98;7.38;;;;;;;24.03;33.39;101637.78;5123007;28;20785;-55
2022/04/19 08:35:54;;;;;;;13.65;8.05;;;;;;;23.87;33.41;101634.56;5120288;28;20479;-53
2022/04/19 08:38:26;;;;;;;11.25;7.63;;;;;;;23.66;33.52;101633.03;5122215;28;20994;-55
2022/04/19 08:41:00;;;;;;;13.10;8.40;;;;;;;23.69;33.88;101637.19;5125704;28;20424;-52
2022/04/19 08:43:33;;;;;;;12.20;7.55;;;;;;;23.85;33.53;101644.78;5125592;28;20745;-55
2022/04/19 08:46:07;;;;;;;11.68;7.60;;;;;;;24.09;33.24;101626.09;5129480;28;20777;-56
2022/04/19 08:48:42;;;;;;;16.02;8.70;;;;;;;23.99;33.25;101625.78;5126202;28;20429;-56
2022/04/19 08:51:19;;;;;;;12.30;7.55;;;;;;;23.56;33.47;101632.66;5128443;28;20535;-55
2022/04/19 08:59:32;;;;;;;11.32;7.72;;;;;;;23.09;33.66;101629.38;5128937;28;20421;-53
2022/04/19 09:02:34;;;;;;;13.23;8.27;;;;;;;23.16;33.56;101624.78;5137771;28;20426;-53
2022/04/19 09:05:17;;;;;;;14.65;8.45;;;;;;;22.87;33.76;101630.69;5133474;28;20430;-52
2022/04/19 09:07:51;;;;;;;12.35;8.32;;;;;;;22.50;33.86;101633.88;5135893;28;20907;-53
2022/04/19 09:10:29;;;;;;;12.20;7.72;;;;;;;22.28;34.12;101619.00;5149590;28;20494;-55
2022/04/19 09:13:04;;;;;;;14.20;8.90;;;;;;;22.49;33.80;101632.22;5136910;28;20419;-54
2022/04/19 09:15:42;;;;;;;12.82;8.48;;;;;;;22.54;33.68;101618.94;5135751;28;20440;-53
2022/04/19 09:18:24;;;;;;;14.20;9.15;;;;;;;22.39;33.61;101620.22;5134264;28;30140;-54
2022/04/19 09:20:59;;;;;;;14.48;8.90;;;;;;;22.15;33.66;101629.75;5134664;28;20434;-52
2022/04/19 09:23:34;;;;;;;16.40;9.65;;;;;;;21.97;33.65;101638.41;5132421;28;20942;-55
2022/04/19 09:26:09;;;;;;;12.07;8.90;;;;;;;21.57;33.66;101596.16;5145390;28;20419;-56
2022/04/19 09:28:42;;;;;;;18.43;9.70;;;;;;;21.64;33.60;101628.44;5140454;28;20426;-54
2022/04/19 09:31:15;;;;;;;12.53;8.13;;;;;;;21.51;33.40;101623.84;5142709;28;20478;-55
2022/04/19 09:34:00;;;;;;;13.33;8.27;;;;;;;21.64;33.29;101628.44;5147319;28;20810;-53
2022/04/19 09:36:34;;;;;;;13.32;8.88;;;;;;;21.84;32.93;101617.72;5136283;28;20439;-57
2022/04/19 09:39:28;;;;;;;14.73;7.90;;;;;;;21.86;32.94;101621.00;5129340;28;20559;-55
2022/04/19 09:42:05;;;;;;;14.43;8.63;;;;;;;21.53;32.85;101618.28;5136331;28;20513;-56
2022/04/19 09:44:39;;;;;;;15.60;8.23;;;;;;;21.35;32.84;101618.81;5196603;28;20450;-58
2022/04/19 09:47:13;;;;;;;14.45;9.00;;;;;;;21.07;32.59;101614.38;5135290;28;20526;-54
2022/04/19 09:49:49;;;;;;;13.35;8.25;;;;;;;20.97;32.59;101605.88;5133976;28;20449;-51
2022/04/19 09:52:48;;;;;;;11.27;7.25;;;;;;;21.12;32.29;101608.41;5137115;28;20903;-54
2022/04/19 09:55:20;;;;;;;11.57;7.43;;;;;;;21.25;32.20;101613.03;5137476;28;20858;-54
2022/04/19 09:57:53;;;;;;;14.57;8.73;;;;;;;21.39;31.82;101612.88;5133225;28;20424;-50
2022/04/19 10:00:25;;;;;;;14.70;7.97;;;;;;;21.39;31.82;101603.97;5142236;28;20521;-53
2022/04/19 10:08:41;;;;;;;14.55;7.60;;;;;;;20.96;32.01;101604.19;5135778;28;20585;-55
2022/04/19 10:11:16;;;;;;;14.27;8.10;;;;;;;20.97;31.88;101616.63;5129033;28;20471;-56
2022/04/19 10:13:50;;;;;;;12.40;7.82;;;;;;;21.01;31.95;101614.38;5125987;28;20470;-54
2022/04/19 10:16:23;;;;;;;13.83;7.87;;;;;;;21.03;31.74;101618.50;5130315;28;20924;-50
2022/04/19 10:18:55;;;;;;;13.63;7.82;;;;;;;20.96;31.88;101621.13;5122886;28;20408;-53
2022/04/19 10:21:34;;;;;;;15.55;8.55;;;;;;;20.83;31.77;101620.25;5125561;28;20435;-49
2022/04/19 10:24:14;;;;;;;13.87;7.93;;;;;;;20.58;31.79;101612.69;5121940;28;20508;-54
2022/04/19 10:26:49;;;;;;;15.67;8.73;;;;;;;20.55;31.86;101607.72;5121234;28;20486;-51
2022/04/19 10:29:24;;;;;;;12.68;7.72;;;;;;;20.78;31.74;101611.97;5127636;28;21123;-52
2022/04/19 10:32:02;;;;;;;17.42;8.60;;;;;;;20.63;31.79;101612.94;5119008;28;20834;-54
2022/04/19 10:34:39;;;;;;;16.75;9.90;;;;;;;20.61;31.74;101612.28;5122594;28;20522;-53
2022/04/19 10:37:23;;;;;;;14.13;8.77;;;;;;;20.67;31.56;101624.09;5124910;28;20428;-52
2022/04/19 10:40:12;;;;;;;12.27;8.00;;;;;;;20.75;31.61;101617.72;5124937;28;20821;-46
2022/04/19 10:42:45;;;;;;;18.35;9.75;;;;;;;20.80;31.64;101620.66;5127161;28;20424;-54
2022/04/19 10:45:25;;;;;;;18.33;10.02;;;;;;;20.91;31.46;101622.78;5138097;28;20423;-54
2022/04/19 10:48:07;;;;;;;16.50;8.52;;;;;;;20.84;31.41;101633.50;5134040;28;20464;-56
2022/04/19 10:50:40;;;;;;;16.10;10.02;;;;;;;20.71;31.70;101628.84;5136943;28;20506;-56
2022/04/19 10:53:14;;;;;;;17.25;9.65;;;;;;;20.53;31.87;101625.84;5136529;28;20430;-52
2022/04/19 10:56:05;;;;;;;17.88;10.30;;;;;;;20.42;31.73;101629.06;5132567;28;20965;-53
2022/04/19 10:58:43;;;;;;;19.08;9.90;;;;;;;20.19;31.75;101614.03;5231238;27;26396;-52
2022/04/19 11:01:32;;;;;;;19.85;10.45;;;;;;;20.37;31.74;101621.59;5131958;28;20433;-52
2022/04/19 11:04:04;;;;;;;17.85;10.13;;;;;;;20.48;31.65;101628.28;5136509;28;20427;-52
2022/04/19 11:06:40;;;;;;;20.30;10.90;;;;;;;20.67;31.60;101621.41;5132190;28;20427;-51
2022/04/19 11:09:22;;;;;;;18.03;11.10;;;;;;;20.62;31.60;101613.94;5133928;28;20431;-53
2022/04/19 11:12:08;;;;;;;18.45;11.52;;;;;;;20.55;31.72;101612.25;5128415;28;20446;-54
2022/04/19 11:14:42;;;;;;;20.48;11.13;;;;;;;20.50;31.42;101608.28;5134106;28;20446;-55
2022/04/19 11:17:24;;;;;;;20.00;11.27;;;;;;;20.48;31.58;101601.44;5139661;28;20725;-56
2022/04/19 11:19:58;;;;;;;20.10;11.82;;;;;;;20.47;31.60;101602.44;5129899;28;20414;-56
2022/04/19 11:22:46;;;;;;;21.50;11.30;;;;;;;20.51;31.44;101606.41;5132963;28;20469;-54
2022/04/19 11:25:39;;;;;;;20.73;11.73;;;;;;;20.42;31.42;101602.22;5134422;28;20424;-50
2022/04/19 11:28:27;;;;;;;19.70;11.80;;;;;;;20.59;31.22;101608.97;5134943;28;20415;-50
2022/04/19 11:31:14;;;;;;;19.17;12.02;;;;;;;20.49;31.28;101565.53;5131793;28;20475;-53
2022/04/19 11:33:48;;;;;;;19.63;11.77;;;;;;;20.69;31.31;101608.63;5133314;28;20494;-51
2022/04/19 11:36:21;;;;;;;19.88;12.63;;;;;;;20.83;31.25;101596.91;5133040;28;20425;-50
2022/04/19 11:38:53;;;;;;;21.05;11.70;;;;;;;20.94;31.20;101603.59;5137909;28;21167;-49
2022/04/19 11:47:09;;;;;;;19.63;12.35;;;;;;;20.86;30.87;101572.34;5127538;28;20914;-54
2022/04/19 11:49:41;;;;;;;21.70;11.25;;;;;;;20.99;31.06;101606.50;5130337;28;20449;-55
2022/04/19 11:52:15;;;;;;;19.73;12.15;;;;;;;20.80;30.88;101564.28;5133073;28;20422;-54
2022/04/19 11:54:54;;;;;;;22.92;12.55;;;;;;;20.93;30.86;101594.72;5134988;28;20439;-53
2022/04/19 11:57:27;;;;;;;18.10;11.18;;;;;;;20.85;31.10;101596.72;5178511;28;20531;-53
2022/04/19 12:00:01;;;;;;;19.38;11.07;;;;;;;20.66;31.18;101599.13;5208427;28;20450;-56
2022/04/19 12:02:33;;;;;;;18.17;10.93;;;;;;;20.54;31.16;101605.25;5223592;28;20424;-56
2022/04/19 12:05:07;;;;;;;18.25;10.35;;;;;;;20.49;31.26;101597.72;5211291;28;20435;-56
2022/04/19 12:07:46;;;;;;;22.75;11.48;;;;;;;20.50;30.99;101599.38;5222778;28;20751;-56
2022/04/19 12:10:19;;;;;;;20.30;11.40;;;;;;;20.56;30.88;101593.25;5204071;28;20423;-53
2022/04/19 12:12:52;;;;;;;20.33;11.20;;;;;;;20.73;30.70;101591.91;5210336;28;20901;-55
2022/04/19 12:15:42;;;;;;;21.88;11.73;;;;;;;20.72;30.89;101592.97;5211673;28;20777;-46
2022/04/19 12:22:00;;;;;;;19.17;11.35;;;;;;;20.60;30.80;101583.81;5220315;28;20473;-55
2022/04/19 12:24:33;;;;;;;21.50;10.63;;;;;;;20.73;30.73;101583.88;5220393;28;20798;-53